createdAt,value
2023-03-03T00:01:07.472Z,29.17
2023-03-03T00:03:34.761Z,29.60
2023-03-03T00:06:04.005Z,26.80
2023-03-03T00:08:32.536Z,30.93
2023-03-03T00:11:00.966Z,31.80
2023-03-03T00:13:29.004Z,31.57
2023-03-03T00:16:12.804Z,28.87
2023-03-03T00:18:46.120Z,26.83
2023-03-03T00:21:32.000Z,32.53
2023-03-03T00:24:16.854Z,27.60
2023-03-03T00:27:09.139Z,30.20
2023-03-03T00:29:40.764Z,29.27
2023-03-03T00:32:19.898Z,33.87
2023-03-03T00:34:47.289Z,31.60
2023-03-03T00:37:35.029Z,33.10
2023-03-03T00:40:20.967Z,34.93
2023-03-03T00:42:54.422Z,33.70
2023-03-03T00:45:44.369Z,31.10
2023-03-03T00:48:31.799Z,35.63
2023-03-03T00:51:01.220Z,29.53
2023-03-03T00:53:30.473Z,32.93
2023-03-03T00:55:58.075Z,30.17
2023-03-03T00:58:25.701Z,34.87
2023-03-03T01:00:54.511Z,31.20
2023-03-03T01:03:24.703Z,32.83
2023-03-03T01:05:52.770Z,32.40
2023-03-03T01:08:23.446Z,29.70
2023-03-03T01:10:54.544Z,32.03
2023-03-03T01:13:24.521Z,28.97
2023-03-03T01:15:51.907Z,32.13
2023-03-03T01:18:19.345Z,31.13
2023-03-03T01:20:46.795Z,25.83
2023-03-03T01:23:13.733Z,28.40
2023-03-03T01:25:40.978Z,27.07
2023-03-03T01:28:07.756Z,28.23
2023-03-03T01:30:34.868Z,30.07
2023-03-03T01:33:01.805Z,29.20
2023-03-03T01:35:29.949Z,29.40
2023-03-03T01:37:57.828Z,28.37
2023-03-03T01:40:28.293Z,27.73
2023-03-03T01:42:55.100Z,24.40
2023-03-03T01:45:21.933Z,29.10
2023-03-03T01:48:06.616Z,26.03
2023-03-03T01:50:49.021Z,25.23
2023-03-03T01:53:22.613Z,26.27
2023-03-03T01:55:52.078Z,27.27
2023-03-03T01:58:22.972Z,30.50
2023-03-03T02:00:59.150Z,29.67
2023-03-03T02:03:27.198Z,26.00
2023-03-03T02:05:58.721Z,25.93
2023-03-03T02:08:31.518Z,30.27
2023-03-03T02:10:58.683Z,31.40
2023-03-03T02:13:25.476Z,25.20
2023-03-03T02:15:52.478Z,33.47
2023-03-03T02:18:21.019Z,28.93
2023-03-03T02:21:19.727Z,30.03
2023-03-03T02:24:10.955Z,27.40
2023-03-03T02:26:41.478Z,25.20
2023-03-03T02:29:09.991Z,26.10
2023-03-03T02:31:38.628Z,29.10
2023-03-03T02:34:05.588Z,25.23
2023-03-03T02:36:35.890Z,27.97
2023-03-03T02:39:19.252Z,27.23
2023-03-03T02:41:48.970Z,30.07
2023-03-03T02:44:18.153Z,30.00
2023-03-03T02:46:47.875Z,29.30
2023-03-03T02:49:17.879Z,29.53
2023-03-03T02:51:44.985Z,28.20
2023-03-03T02:54:14.542Z,27.67
2023-03-03T02:56:41.872Z,29.90
2023-03-03T02:59:09.435Z,26.77
2023-03-03T03:01:39.345Z,29.10
2023-03-03T03:04:18.672Z,29.77
2023-03-03T03:06:47.776Z,30.60
2023-03-03T03:09:15.855Z,28.77
2023-03-03T03:11:43.239Z,29.00
2023-03-03T03:14:14.593Z,31.87
2023-03-03T03:16:43.402Z,30.27
2023-03-03T03:19:10.182Z,28.60
2023-03-03T03:21:37.225Z,30.20
2023-03-03T03:24:04.022Z,26.07
2023-03-03T03:26:30.822Z,25.00
2023-03-03T03:28:57.728Z,26.23
2023-03-03T03:31:24.554Z,22.27
2023-03-03T03:33:52.776Z,26.73
2023-03-03T03:36:19.554Z,28.93
2023-03-03T03:38:46.397Z,22.03
2023-03-03T03:41:13.894Z,23.60
2023-03-03T03:43:44.138Z,25.13
2023-03-03T03:46:11.116Z,22.00
2023-03-03T03:48:37.879Z,24.73
2023-03-03T03:51:04.954Z,25.17
2023-03-03T03:53:32.004Z,25.43
2023-03-03T03:55:58.843Z,26.07
2023-03-03T03:58:26.007Z,24.40
2023-03-03T04:00:52.853Z,26.43
2023-03-03T04:03:20.234Z,23.90
2023-03-03T04:05:47.265Z,26.00
2023-03-03T04:08:16.084Z,23.63
2023-03-03T04:10:42.867Z,24.30
2023-03-03T04:13:09.692Z,26.50
2023-03-03T04:15:44.961Z,24.13
2023-03-03T04:18:11.750Z,25.47
2023-03-03T04:20:40.388Z,24.73
2023-03-03T04:23:07.162Z,22.10
2023-03-03T04:25:34.045Z,27.87
2023-03-03T04:28:00.738Z,27.33
2023-03-03T04:30:27.527Z,26.70
2023-03-03T04:32:54.351Z,25.80
2023-03-03T04:35:21.474Z,26.70
2023-03-03T04:37:51.315Z,21.37
2023-03-03T04:40:18.391Z,25.47
2023-03-03T04:42:45.231Z,24.07
2023-03-03T04:45:12.145Z,24.80
2023-03-03T04:47:39.149Z,25.17
2023-03-03T04:50:06.488Z,27.70
2023-03-03T04:52:33.247Z,28.13
2023-03-03T04:55:00.391Z,27.67
2023-03-03T04:57:27.341Z,24.17
2023-03-03T04:59:54.218Z,25.77
2023-03-03T05:02:20.977Z,30.17
2023-03-03T05:04:47.870Z,27.00
2023-03-03T05:07:17.559Z,26.73
2023-03-03T05:09:44.365Z,24.77
2023-03-03T05:12:11.157Z,25.80
2023-03-03T05:14:37.896Z,29.90
2023-03-03T05:17:07.775Z,24.33
2023-03-03T05:19:35.023Z,24.27
2023-03-03T05:22:02.111Z,26.97
2023-03-03T05:24:28.944Z,21.77
2023-03-03T05:26:55.812Z,26.50
2023-03-03T05:29:22.634Z,26.37
2023-03-03T05:31:49.753Z,28.97
2023-03-03T05:34:16.525Z,28.53
2023-03-03T05:36:45.984Z,24.50
2023-03-03T05:39:12.887Z,28.00
2023-03-03T05:41:42.724Z,26.97
2023-03-03T05:44:09.730Z,26.43
2023-03-03T05:46:37.331Z,27.03
2023-03-03T05:49:04.071Z,31.87
2023-03-03T05:51:30.913Z,30.77
2023-03-03T05:53:57.637Z,29.97
2023-03-03T05:56:24.360Z,29.17
2023-03-03T05:58:51.110Z,31.53
2023-03-03T06:01:18.133Z,30.17
2023-03-03T06:03:44.889Z,28.47
2023-03-03T06:06:12.418Z,29.00
2023-03-03T06:08:45.324Z,26.87
2023-03-03T06:11:13.090Z,27.10
2023-03-03T06:13:41.421Z,30.63
2023-03-03T06:16:08.488Z,29.93
2023-03-03T06:18:35.191Z,28.17
2023-03-03T06:21:01.933Z,29.03
2023-03-03T06:23:28.812Z,27.40
2023-03-03T06:25:55.543Z,28.00
2023-03-03T06:28:25.698Z,27.60
2023-03-03T06:30:56.457Z,25.47
2023-03-03T06:33:23.605Z,29.13
2023-03-03T06:35:54.635Z,29.97
2023-03-03T06:38:21.696Z,25.70
2023-03-03T06:40:48.501Z,21.90
2023-03-03T06:43:15.387Z,27.53
2023-03-03T06:45:43.417Z,28.48
2023-03-03T06:48:10.166Z,26.33
2023-03-03T06:50:36.964Z,28.73
2023-03-03T06:53:18.298Z,24.77
2023-03-03T06:55:45.616Z,25.73
2023-03-03T06:58:15.349Z,24.40
2023-03-03T07:00:58.397Z,22.47
2023-03-03T07:03:37.121Z,28.97
2023-03-03T07:06:16.494Z,22.03
2023-03-03T07:08:43.200Z,27.77
2023-03-03T07:11:16.273Z,25.50
2023-03-03T07:13:50.125Z,24.13
2023-03-03T07:16:18.506Z,25.07
2023-03-03T07:18:51.204Z,24.60
2023-03-03T07:21:26.661Z,19.83
2023-03-03T07:23:54.365Z,28.53
2023-03-03T07:26:27.503Z,22.70
2023-03-03T07:28:58.388Z,24.57
2023-03-03T07:31:33.776Z,28.30
2023-03-03T07:34:01.563Z,27.27
2023-03-03T07:36:35.013Z,23.40
2023-03-03T07:39:11.563Z,21.17
2023-03-03T07:41:38.588Z,23.00
2023-03-03T07:44:12.616Z,22.60
2023-03-03T07:46:48.201Z,21.80
2023-03-03T07:49:25.270Z,21.53
2023-03-03T07:52:00.083Z,20.90
2023-03-03T07:54:39.462Z,20.60
2023-03-03T07:57:23.279Z,17.53
2023-03-03T08:00:19.384Z,18.27
2023-03-03T08:03:25.582Z,18.23
2023-03-03T08:05:52.746Z,17.30
2023-03-03T08:08:25.054Z,16.77
2023-03-03T08:10:56.388Z,17.40
2023-03-03T08:13:33.214Z,21.27
2023-03-03T08:16:04.771Z,17.60
2023-03-03T08:18:40.702Z,18.67
2023-03-03T08:21:13.611Z,19.27
2023-03-03T08:23:40.758Z,21.47
2023-03-03T08:26:08.219Z,17.70
2023-03-03T08:28:35.022Z,17.00
2023-03-03T08:31:16.738Z,15.40
2023-03-03T08:33:47.447Z,16.57
2023-03-03T08:36:14.737Z,17.77
2023-03-03T08:38:41.554Z,19.47
2023-03-03T08:41:08.704Z,15.60
2023-03-03T08:43:35.374Z,16.00
2023-03-03T08:46:08.363Z,14.73
2023-03-03T08:48:35.142Z,16.13
2023-03-03T08:51:02.411Z,14.57
2023-03-03T08:53:34.370Z,13.83
2023-03-03T08:56:01.348Z,13.50
2023-03-03T08:58:34.967Z,14.53
2023-03-03T09:01:02.461Z,14.27
2023-03-03T09:03:29.922Z,13.03
2023-03-03T09:05:56.853Z,15.03
2023-03-03T09:08:23.592Z,13.70
2023-03-03T09:10:53.169Z,11.57
2023-03-03T09:13:20.141Z,14.30
2023-03-03T09:15:48.073Z,11.70
2023-03-03T09:18:18.780Z,14.47
2023-03-03T09:20:50.407Z,14.77
2023-03-03T09:23:38.926Z,14.80
2023-03-03T09:26:36.753Z,13.70
2023-03-03T09:29:29.169Z,13.13
2023-03-03T09:32:02.654Z,16.17
2023-03-03T09:34:40.246Z,11.13
2023-03-03T09:37:34.455Z,12.60
2023-03-03T09:40:01.322Z,11.27
2023-03-03T09:42:43.636Z,11.00
2023-03-03T09:45:22.076Z,14.23
2023-03-03T09:48:06.924Z,13.13
2023-03-03T09:51:01.575Z,13.40
2023-03-03T09:54:06.179Z,13.13
2023-03-03T09:56:46.927Z,15.00
2023-03-03T09:59:27.102Z,12.63
2023-03-03T10:02:12.631Z,12.43
2023-03-03T10:04:43.890Z,15.17
2023-03-03T10:07:28.479Z,12.20
2023-03-03T10:10:05.938Z,13.80
2023-03-03T10:12:38.733Z,13.07
2023-03-03T10:15:31.476Z,10.93
2023-03-03T10:18:15.693Z,12.97
2023-03-03T10:20:53.762Z,10.30
2023-03-03T10:23:39.502Z,10.53
2023-03-03T10:26:38.271Z,13.07
2023-03-03T10:29:45.981Z,9.60
2023-03-03T10:32:30.500Z,12.37
2023-03-03T10:35:41.448Z,10.73
2023-03-03T10:38:20.075Z,9.90
2023-03-03T10:41:24.240Z,11.17
2023-03-03T10:44:12.776Z,9.27
2023-03-03T10:47:16.202Z,11.87
2023-03-03T10:50:01.190Z,11.20
2023-03-03T10:52:57.999Z,9.50
2023-03-03T10:55:39.538Z,9.93
2023-03-03T10:58:24.752Z,8.90
2023-03-03T11:01:03.728Z,9.33
2023-03-03T11:03:49.951Z,9.53
2023-03-03T11:06:40.661Z,12.90
2023-03-03T11:09:33.780Z,10.80
2023-03-03T11:13:02.166Z,11.57
2023-03-03T11:15:45.001Z,7.57
2023-03-03T11:18:16.111Z,10.53
2023-03-03T11:21:05.790Z,12.10
2023-03-03T11:23:50.646Z,11.13
2023-03-03T11:26:50.161Z,11.37
2023-03-03T11:29:42.540Z,10.07
2023-03-03T11:32:22.701Z,10.20
2023-03-03T11:35:15.920Z,10.60
2023-03-03T11:37:45.537Z,8.73
2023-03-03T11:40:21.831Z,10.97
2023-03-03T11:43:18.582Z,10.00
2023-03-03T11:45:59.973Z,11.60
2023-03-03T11:48:34.005Z,9.60
2023-03-03T11:51:21.058Z,6.43
2023-03-03T11:53:57.927Z,8.50
2023-03-03T11:56:42.359Z,8.37
2023-03-03T11:59:31.930Z,9.07
2023-03-03T12:02:27.579Z,7.13
2023-03-03T12:05:19.632Z,8.97
2023-03-03T12:08:04.874Z,7.93
2023-03-03T12:10:55.389Z,9.60
2023-03-03T12:13:29.886Z,7.67
2023-03-03T12:16:12.314Z,7.00
2023-03-03T12:18:42.225Z,9.87
2023-03-03T12:21:23.596Z,9.50
2023-03-03T12:24:14.372Z,8.27
2023-03-03T12:26:54.414Z,6.33
2023-03-03T12:29:38.465Z,7.33
2023-03-03T12:32:37.258Z,7.10
2023-03-03T12:35:26.254Z,6.70
2023-03-03T12:38:20.780Z,7.30
2023-03-03T12:41:29.295Z,6.73
2023-03-03T12:44:11.384Z,6.47
2023-03-03T12:46:45.319Z,6.47
2023-03-03T12:49:12.950Z,6.07
2023-03-03T12:52:14.380Z,6.27
2023-03-03T12:54:43.866Z,6.23
2023-03-03T12:57:31.200Z,6.10
2023-03-03T13:00:06.936Z,4.97
2023-03-03T13:03:01.976Z,8.00
2023-03-03T13:05:51.008Z,6.07
2023-03-03T13:08:52.849Z,7.17
2023-03-03T13:11:34.760Z,5.87
2023-03-03T13:14:35.627Z,5.47
2023-03-03T13:17:09.171Z,4.20
2023-03-03T13:19:45.733Z,6.53
2023-03-03T13:22:25.793Z,6.30
2023-03-03T13:25:03.686Z,9.33
2023-03-03T13:27:39.781Z,7.67
2023-03-03T13:30:27.413Z,6.00
2023-03-03T13:33:05.842Z,6.87
2023-03-03T13:35:46.381Z,8.67
2023-03-03T13:38:26.332Z,9.37
2023-03-03T13:41:26.485Z,6.33
2023-03-03T13:44:05.150Z,6.60
2023-03-03T13:46:52.874Z,8.63
2023-03-03T13:49:51.831Z,5.70
2023-03-03T13:52:23.483Z,5.43
2023-03-03T13:55:21.705Z,7.57
2023-03-03T13:58:01.568Z,5.60
2023-03-03T14:00:38.621Z,3.70
2023-03-03T14:03:35.822Z,6.90
2023-03-03T14:06:15.511Z,6.97
2023-03-03T14:09:01.061Z,4.67
2023-03-03T14:11:49.033Z,7.93
2023-03-03T14:15:02.075Z,5.83
2023-03-03T14:17:38.263Z,6.47
2023-03-03T14:20:24.900Z,5.93
2023-03-03T14:22:53.457Z,4.37
2023-03-03T14:25:20.369Z,5.30
2023-03-03T14:27:47.566Z,5.67
2023-03-03T14:30:31.982Z,7.17
2023-03-03T14:33:12.651Z,4.30
2023-03-03T14:35:52.083Z,5.23
2023-03-03T14:38:27.073Z,6.60
2023-03-03T14:41:09.985Z,6.63
2023-03-03T14:43:47.966Z,6.87
2023-03-03T14:46:36.698Z,4.93
2023-03-03T14:49:15.811Z,5.97
2023-03-03T14:51:48.568Z,4.40
2023-03-03T14:54:25.716Z,7.67
2023-03-03T14:57:07.169Z,6.50
2023-03-03T14:59:35.972Z,4.50
2023-03-03T15:02:17.520Z,3.50
2023-03-03T15:04:48.780Z,2.67
2023-03-03T15:07:30.459Z,4.07
2023-03-03T15:09:57.237Z,6.13
2023-03-03T15:12:39.541Z,5.07
2023-03-03T15:15:11.393Z,5.20
2023-03-03T15:18:11.073Z,2.30
2023-03-03T15:21:05.136Z,3.23
2023-03-03T15:23:49.874Z,3.50
2023-03-03T15:26:42.381Z,2.40
2023-03-03T15:29:28.185Z,2.73
2023-03-03T15:32:13.806Z,3.73
2023-03-03T15:35:14.751Z,4.83
2023-03-03T15:37:56.746Z,3.87
2023-03-03T15:41:05.274Z,3.30
2023-03-03T15:43:50.143Z,6.87
2023-03-03T15:46:53.311Z,4.17
2023-03-03T15:49:43.006Z,6.60
2023-03-03T15:52:22.687Z,6.60
2023-03-03T15:55:13.304Z,3.17
2023-03-03T15:58:05.959Z,6.00
2023-03-03T16:00:51.804Z,3.27
2023-03-03T16:03:35.500Z,3.10
2023-03-03T16:06:38.173Z,3.27
2023-03-03T16:09:30.312Z,3.00
2023-03-03T16:12:25.038Z,2.77
2023-03-03T16:15:10.302Z,2.17
2023-03-03T16:18:04.049Z,2.13
2023-03-03T16:20:30.910Z,4.03
2023-03-03T16:23:36.229Z,4.73
2023-03-03T16:26:33.995Z,3.77
2023-03-03T16:29:17.629Z,3.07
2023-03-03T16:31:48.563Z,4.23
2023-03-03T16:34:40.276Z,2.67
2023-03-03T16:37:22.151Z,3.23
2023-03-03T16:40:03.902Z,3.03
2023-03-03T16:42:32.891Z,3.63
2023-03-03T16:45:29.667Z,4.60
2023-03-03T16:48:02.208Z,4.10
2023-03-03T16:50:38.511Z,2.27
2023-03-03T16:53:30.971Z,4.83
2023-03-03T16:56:23.661Z,1.13
2023-03-03T16:59:11.429Z,1.40
2023-03-03T17:02:15.126Z,2.03
2023-03-03T17:05:13.400Z,3.03
2023-03-03T17:08:08.148Z,3.17
2023-03-03T17:10:53.845Z,6.43
2023-03-03T17:13:47.009Z,4.47
2023-03-03T17:16:51.515Z,3.57
2023-03-03T17:19:22.662Z,1.03
2023-03-03T17:22:09.051Z,4.43
2023-03-03T17:24:51.516Z,2.43
2023-03-03T17:27:27.164Z,4.37
2023-03-03T17:30:00.499Z,4.27
2023-03-03T17:32:56.224Z,2.07
2023-03-03T17:35:33.206Z,3.37
2023-03-03T17:38:28.982Z,2.60
2023-03-03T17:41:28.704Z,4.20
2023-03-03T17:44:27.776Z,3.70
2023-03-03T17:47:10.185Z,5.97
2023-03-03T17:49:50.919Z,5.43
2023-03-03T17:52:44.798Z,4.60
2023-03-03T17:55:53.550Z,4.00
2023-03-03T17:59:04.278Z,3.53
2023-03-03T18:02:11.101Z,2.40
2023-03-03T18:05:03.952Z,5.23
2023-03-03T18:07:43.010Z,3.53
2023-03-03T18:10:28.626Z,4.23
2023-03-03T18:13:02.869Z,3.17
2023-03-03T18:15:29.767Z,4.97
2023-03-03T18:18:18.674Z,1.20
2023-03-03T18:20:59.916Z,2.97
2023-03-03T18:23:46.812Z,4.20
2023-03-03T18:26:34.466Z,5.43
2023-03-03T18:29:19.449Z,4.87
2023-03-03T18:31:58.432Z,3.97
2023-03-03T18:34:54.326Z,3.70
2023-03-03T18:37:30.382Z,3.13
2023-03-03T18:40:03.183Z,5.00
2023-03-03T18:42:41.067Z,1.87
2023-03-03T18:45:20.105Z,3.03
2023-03-03T18:48:11.207Z,5.23
2023-03-03T18:50:50.426Z,3.63
2023-03-03T18:53:29.180Z,2.97
2023-03-03T18:55:58.570Z,4.73
2023-03-03T18:58:57.279Z,2.77
2023-03-03T19:01:36.181Z,4.97
2023-03-03T19:04:16.389Z,5.17
2023-03-03T19:06:43.091Z,1.97
2023-03-03T19:09:38.024Z,3.93
2023-03-03T19:12:09.636Z,3.90
2023-03-03T19:14:40.123Z,4.13
2023-03-03T19:17:18.775Z,4.03
2023-03-03T19:20:15.494Z,4.03
2023-03-03T19:22:52.013Z,2.50
2023-03-03T19:25:21.999Z,8.87
2023-03-03T19:27:58.822Z,4.53
2023-03-03T19:30:46.825Z,5.00
2023-03-03T19:33:32.221Z,3.10
2023-03-03T19:36:01.717Z,3.37
2023-03-03T19:38:42.995Z,5.33
2023-03-03T19:41:45.864Z,6.27
2023-03-03T19:44:39.536Z,5.57
2023-03-03T19:47:43.046Z,8.40
2023-03-03T19:50:09.905Z,7.50
2023-03-03T19:53:01.384Z,7.13
2023-03-03T19:55:40.111Z,4.73
2023-03-03T19:58:45.642Z,9.40
2023-03-03T20:01:21.623Z,10.10
2023-03-03T20:04:06.293Z,8.90
2023-03-03T20:06:43.774Z,7.10
2023-03-03T20:09:37.213Z,7.70
2023-03-03T20:12:22.827Z,10.03
2023-03-03T20:14:59.030Z,11.07
2023-03-03T20:17:59.628Z,10.70
2023-03-03T20:20:50.924Z,11.07
2023-03-03T20:23:36.661Z,8.37
2023-03-03T20:26:22.201Z,8.93
2023-03-03T20:29:01.144Z,5.43
2023-03-03T20:31:49.137Z,9.00
2023-03-03T20:34:56.553Z,10.83
2023-03-03T20:37:38.796Z,9.80
2023-03-03T20:40:40.779Z,9.20
2023-03-03T20:43:45.224Z,13.23
2023-03-03T20:46:48.669Z,13.63
2023-03-03T20:49:40.097Z,10.07
2023-03-03T20:52:31.649Z,9.57
2023-03-03T20:55:18.990Z,9.20
2023-03-03T20:58:12.107Z,12.33
2023-03-03T21:00:57.714Z,13.00
2023-03-03T21:03:38.296Z,10.53
2023-03-03T21:06:19.099Z,13.43
2023-03-03T21:09:00.314Z,11.57
2023-03-03T21:11:43.357Z,15.37
2023-03-03T21:14:34.746Z,11.37
2023-03-03T21:17:24.257Z,11.87
2023-03-03T21:19:50.996Z,12.43
2023-03-03T21:22:17.766Z,10.27
2023-03-03T21:24:48.746Z,13.67
2023-03-03T21:27:31.042Z,15.60
2023-03-03T21:30:15.673Z,13.27
2023-03-03T21:32:50.792Z,10.07
2023-03-03T21:35:23.836Z,14.67
2023-03-03T21:37:55.117Z,11.37
2023-03-03T21:40:27.595Z,12.07
2023-03-03T21:42:59.669Z,9.53
2023-03-03T21:45:27.282Z,9.47
2023-03-03T21:47:55.180Z,10.70
2023-03-03T21:50:21.992Z,14.87
2023-03-03T21:52:51.441Z,12.97
2023-03-03T21:55:18.329Z,10.63
2023-03-03T21:57:45.060Z,11.47
2023-03-03T22:00:12.332Z,15.37
2023-03-03T22:02:39.168Z,11.23
2023-03-03T22:05:07.736Z,7.17
2023-03-03T22:07:34.742Z,11.40
2023-03-03T22:10:01.595Z,16.93
2023-03-03T22:12:28.390Z,5.60
2023-03-03T22:14:55.120Z,16.93
2023-03-03T22:17:25.454Z,14.50
2023-03-03T22:19:52.703Z,10.47
2023-03-03T22:22:19.485Z,13.57
2023-03-03T22:24:46.388Z,10.43
2023-03-03T22:27:13.200Z,11.53
2023-03-03T22:29:42.655Z,13.07
2023-03-03T22:32:09.525Z,12.30
2023-03-03T22:34:36.618Z,11.20
2023-03-03T22:37:05.652Z,14.87
2023-03-03T22:39:32.433Z,12.33
2023-03-03T22:41:59.281Z,17.73
2023-03-03T22:44:26.047Z,17.53
2023-03-03T22:46:52.893Z,12.17
2023-03-03T22:49:19.689Z,9.47
2023-03-03T22:51:46.456Z,13.90
2023-03-03T22:54:13.569Z,20.90
2023-03-03T22:56:40.330Z,12.37
2023-03-03T22:59:07.186Z,10.83
2023-03-03T23:01:34.042Z,13.63
2023-03-03T23:04:00.765Z,12.00
2023-03-03T23:06:27.542Z,17.13
2023-03-03T23:08:54.359Z,15.47
2023-03-03T23:11:21.773Z,14.60
2023-03-03T23:13:48.468Z,17.90
2023-03-03T23:16:15.255Z,14.17
2023-03-03T23:18:42.392Z,8.77
2023-03-03T23:21:09.073Z,16.90
2023-03-03T23:23:35.921Z,10.93
2023-03-03T23:26:02.873Z,14.13
2023-03-03T23:28:29.795Z,15.77
2023-03-03T23:30:56.565Z,12.83
2023-03-03T23:33:23.273Z,15.03
2023-03-03T23:35:50.120Z,9.53
2023-03-03T23:38:17.867Z,15.57
2023-03-03T23:40:46.936Z,12.10
2023-03-03T23:43:14.528Z,18.00
2023-03-03T23:45:43.732Z,14.87
2023-03-03T23:48:10.682Z,11.73
2023-03-03T23:50:38.120Z,12.83
2023-03-03T23:53:06.521Z,14.67
2023-03-03T23:55:33.461Z,12.30
2023-03-03T23:58:00.417Z,10.53
